x

9442396 - La Push, Wa (lapw1) Weather Station

11:30 - Sat 25th Mar 2017 All times are PDT. -7 hours from GMT.

  • Wind
    6mph, 7mph gusts
  • Sea Temp 47°f
  • Luft Temp 40°f
  • Sea Pressure 1015.4mb
  • 9442396 - La Push, Wa
  • 9442396 - La Push, Wa

More Historic Weather Station data

Upgrade to MSW Pro to gain access to the past 30 days of data for over 8000 Wavebouys and Weather Stations around the globe.

Join Pro

Comparision Forecast

View Surf forecast
   
Sa 03/25 11:30 6 7 mph 1015.4mb 47f 40f
11:24 6 8 mph 1015.5mb 46f 40f
11:18 6 8 mph 1015.6mb 46f 40f
11:12 6 7 mph 1015.7mb 46f 40f
11:06 5 8 mph 1015.7mb 46f 40f
11:00 7 8 mph 1015.8mb 46f 40f
10:36 5 7 mph 1015.9mb 44f 40f
10:30 6 7 mph 1015.9mb 44f 40f
10:24 6 8 mph 1015.9mb 44f 40f
10:18 6 7 mph 1015.9mb 44f 41f
10:12 5 7 mph 1016mb 44f 41f
10:06 6 8 mph 1016mb 44f 41f
10:00 6 7 mph 1016.1mb 44f 41f
9:36 5 9 mph 1016.3mb 44f 42f
9:30 5 8 mph 1016.3mb 44f 42f
9:24 3 8 mph 1016.4mb 44f 42f
9:18 3 8 mph 1016.4mb 44f 42f
9:12 5 8 mph 1016.4mb 44f 42f
9:06 5 6 mph 1016.4mb 44f 42f
9:00 3 6 mph 1016.6mb 44f 42f
8:36 3 6 mph 1017.1mb 44f 44f
8:30 6 8 mph 1017.1mb 44f 44f
8:24 6 11 mph 1017.2mb 44f 44f
8:18 3 9 mph 1017.3mb 44f 44f
8:12 2 6 mph 1017.4mb 44f 44f
8:06 3 7 mph 1017.3mb 44f 44f
8:00 6 8 mph 1017.3mb 44f 44f
7:36 3 5 mph 1017.7mb 44f 44f
7:30 5 7 mph 1017.7mb 44f 44f
7:24 3 5 mph 1017.9mb 43f 44f
7:18 5 7 mph 1017.9mb 44f 44f
7:12 5 10 mph 1018mb 44f 44f
7:06 6 13 mph 1018mb 44f 44f
7:00 6 8 mph 1018mb 43f 45f
6:36 7 9 mph 1018.1mb 43f 46f
6:30 5 9 mph 1018.2mb 43f 46f
6:24 7 9 mph 1018.2mb 43f 46f
6:18 7 9 mph 1018.3mb 43f 46f
6:12 9 11 mph 1018.4mb 43f 46f
6:06 9 11 mph 1018.5mb 43f 46f
6:00 8 10 mph 1018.6mb 43f 46f
5:36 6 7 mph 1018.8mb 43f 46f
5:30 5 7 mph 1019mb 43f 46f
5:24 5 8 mph 1019.1mb 43f 46f
5:18 6 8 mph 1019.2mb 43f 45f
5:12 5 8 mph 1019.2mb 43f 45f
5:06 6 8 mph 1019.3mb 43f 45f
5:00 6 7 mph 1019.3mb 43f 45f
4:36 10 16 mph 1019.6mb 43f 44f
4:30 14 22 mph 1019.8mb 43f 44f
4:24 14 20 mph 1019.7mb 43f 46f
4:18 9 11 mph 1019.6mb 43f 46f
4:12 8 10 mph 1019.6mb 43f 46f
4:06 8 10 mph 1019.6mb 43f 46f
4:00 6 8 mph 1019.6mb 43f 46f
3:36 6 8 mph 1019.8mb 43f 46f
3:30 6 8 mph 1019.8mb 43f 46f
3:24 6 8 mph 1019.8mb 43f 46f
3:18 6 8 mph 1019.8mb 43f 46f
3:12 5 7 mph 1019.8mb 43f 46f
3:06 6 7 mph 1019.9mb 43f 45f
3:00 6 8 mph 1019.9mb 43f 45f
2:36 6 10 mph 1020.2mb 43f 45f
2:30 7 10 mph 1020.2mb 43f 45f
2:24 7 9 mph 1020.1mb 43f 45f
2:18 8 10 mph 1020.1mb 43f 45f
2:12 8 10 mph 1020.1mb 43f 45f
2:06 8 10 mph 1020.1mb 43f 45f
2:00 8 11 mph 1020.2mb 43f 45f
1:36 8 11 mph 1020.2mb 43f 46f
1:30 8 13 mph 1020.1mb 43f 46f
1:24 10 13 mph 1020.1mb 43f 46f
1:18 9 14 mph 1020mb 43f 46f
1:12 10 15 mph 1020mb 42f 46f
1:06 11 14 mph 1020mb 42f 46f
1:00 11 14 mph 1019.9mb 42f 46f
12:36 11 14 mph 1019.9mb 43f 45f
12:30 13 14 mph 1019.9mb 43f 45f
12:24 13 14 mph 1019.8mb 43f 46f
12:18 13 16 mph 1019.8mb 43f 45f
12:12 13 14 mph 1019.8mb 43f 46f
12:06 9 11 mph 1019.8mb 43f 46f
12:00 10 14 mph 1019.8mb 44f 46f
11:36 8 14 mph 1019.9mb 45f 45f
11:30 9 10 mph 1020mb 45f 46f
11:24 5 13 mph 1020mb 45f 46f
11:18 8 11 mph 1019.9mb 45f 46f
11:12 9 13 mph 1020mb 45f 46f
11:06 7 11 mph 1020mb 45f 45f
11:00 7 10 mph 1019.9mb 45f 45f
10:36 8 13 mph 1019.9mb 45f 45f
10:30 11 15 mph 1019.8mb 44f 45f
10:24 8 10 mph 1019.7mb 44f 45f
10:18 6 13 mph 1019.6mb 44f 45f
10:12 9 11 mph 1019.5mb 44f 45f
10:06 7 15 mph 1019.5mb 44f 45f
10:00 8 13 mph 1019.5mb 43f 45f
9:36 9 13 mph 1019.1mb 43f 45f
9:30 7 10 mph 1019mb 43f 45f
9:24 8 13 mph 1019mb 43f 45f
9:18 10 15 mph 1019.2mb 43f 45f
9:12 10 14 mph 1019.2mb 43f 44f
9:06 13 16 mph 1019.1mb 43f 45f
9:00 11 15 mph 1019.1mb 43f 45f
8:36 9 14 mph 1018.8mb 43f 44f
8:30 2 6 mph 1018.7mb 43f 42f
8:24  -  1 mph 1018.6mb 43f 43f
8:18  -  2 mph 1018.6mb 43f 44f
8:12 2 3 mph 1018.5mb 43f 44f
8:06 2 5 mph 1018.5mb 43f 44f
8:00 5 7 mph 1018.4mb 43f 43f
7:36 10 15 mph 1018.4mb 43f 44f
7:30 13 18 mph 1018.3mb 43f 44f
7:24 10 15 mph 1018.3mb 43f 44f
7:18 13 20 mph 1018.2mb 43f 43f
7:12 15 21 mph 1018.3mb 43f 43f
7:06 14 22 mph 1018.4mb 43f 44f
7:00 17 22 mph 1018.4mb 43f 45f
6:36 10 16 mph 1018.2mb 44f 46f
6:30 9 14 mph 1018.1mb 44f 46f
6:24 8 10 mph 1018.1mb 44f 46f
6:18 9 14 mph 1018mb 44f 46f
6:12 7 11 mph 1018mb 44f 46f
6:06 8 11 mph 1018mb 43f 46f
6:00 8 11 mph 1017.9mb 43f 45f
5:36 8 13 mph 1017.8mb 44f 45f
5:30 9 11 mph 1017.8mb 44f 45f
5:24 10 14 mph 1017.7mb 44f 45f
5:18 7 10 mph 1017.6mb 44f 45f
5:12 7 9 mph 1017.5mb 44f 45f
5:06 8 11 mph 1017.4mb 44f 45f
5:00 10 11 mph 1017.4mb 44f 44f
4:36 14 17 mph 1017.5mb 44f 46f
4:30 9 14 mph 1017.2mb 44f 46f
4:24 8 14 mph 1017.2mb 44f 47f
4:18 11 15 mph 1017.2mb 44f 46f
4:12 8 15 mph 1017.2mb 44f 47f
4:06 11 15 mph 1017.3mb 44f 46f
4:00 10 17 mph 1017.2mb 44f 46f
3:36 15 18 mph 1017.1mb 44f 47f
3:30 13 16 mph 1017.1mb 44f 47f
3:24 13 15 mph 1017mb 44f 47f
3:18 10 14 mph 1017mb 44f 46f
3:12 9 14 mph 1016.9mb 44f 46f
3:06 11 16 mph 1016.9mb 44f 47f
3:00 13 17 mph 1016.9mb 44f 47f
2:36 13 18 mph 1016.8mb 44f 47f
2:30 14 18 mph 1016.8mb 44f 47f
2:24 11 16 mph 1016.6mb 44f 47f
2:18 11 16 mph 1016.7mb 44f 47f
2:12 14 16 mph 1016.7mb 44f 46f
2:06 13 18 mph 1016.6mb 44f 46f
2:00 15 21 mph 1016.6mb 44f 46f
1:36 14 22 mph 1016.3mb 44f 46f
1:30 10 21 mph 1016.1mb 44f 46f
1:24 18 23 mph 1016.2mb 45f 47f
1:18 15 20 mph 1016.1mb 45f 47f
1:12 13 16 mph 1015.9mb 45f 47f
1:06 13 17 mph 1015.9mb 45f 47f
1:00 13 17 mph 1015.8mb 45f 47f
12:36 18 23 mph 1015.5mb 47f 47f
12:30 15 18 mph 1015.3mb 47f 47f
12:24 14 20 mph 1015.2mb 47f 47f
12:18 15 18 mph 1015.1mb 47f 47f
12:12 14 18 mph 1015mb 47f 46f
12:06 15 21 mph 1015mb 47f 47f
12:00 14 17 mph 1014.8mb 47f 47f
Fr 03/24 11:54 13 18 mph 1014.8mb 47f 47f
11:48 13 17 mph 1014.7mb 47f 46f
11:36 14 17 mph 1014.6mb 47f 46f
11:30 15 21 mph 1014.5mb 47f 46f
11:24 16 22 mph 1014.5mb 47f 46f
11:18 16 22 mph 1014.4mb 47f 46f
11:12 16 20 mph 1014.3mb 47f 46f
11:06 15 18 mph 1014.2mb 47f 46f
11:00 13 17 mph 1014.1mb 47f 46f
10:54 11 15 mph 1014mb 47f 45f
10:48 10 21 mph 1013.9mb 47f 47f
10:36 11 20 mph 1013.6mb 47f 47f
10:30 14 21 mph 1013.6mb 47f 47f
10:24 18 22 mph 1013.5mb 47f 47f
10:18 20 22 mph 1013.4mb 46f 47f
10:12 18 23 mph 1013.3mb 46f 47f
10:06 17 25 mph 1013.2mb 46f 47f
10:00 17 24 mph 1013.1mb 46f 47f
9:54 17 24 mph 1013mb 45f 47f
9:48 15 24 mph 1013.1mb 45f 47f
9:36 17 21 mph 1012.8mb 44f 47f
9:30 15 20 mph 1012.8mb 44f 47f
9:24 17 23 mph 1012.7mb 44f 47f
9:18 17 22 mph 1012.6mb 44f 47f
9:12 13 21 mph 1012.6mb 44f 47f
9:06 16 21 mph 1012.6mb 44f 47f
9:00 15 21 mph 1012.5mb 44f 47f
8:54 17 22 mph 1012.3mb 44f 46f
8:48 16 28 mph 1012.2mb 44f 47f
8:36 17 23 mph 1012.2mb 44f 46f
8:30 16 22 mph 1012.1mb 44f 46f
8:24 17 21 mph 1012mb 44f 46f
8:18 18 25 mph 1011.8mb 44f 47f
8:12 20 23 mph 1011.7mb 44f 47f
8:06 18 22 mph 1011.7mb 44f 46f
8:00 16 22 mph 1011.5mb 44f 46f
7:54 17 24 mph 1011.5mb 44f 45f
7:48 20 32 mph 1011.5mb 44f 47f
7:36 21 28 mph 1011.2mb 44f 48f
7:30 14 21 mph 1011.1mb 44f 47f
7:24 16 25 mph 1011.1mb 44f 48f
7:18 22 26 mph 1011mb 44f 48f
7:12 20 23 mph 1010.9mb 44f 48f
7:06 14 23 mph 1010.9mb 44f 48f
7:00 16 23 mph 1010.8mb 44f 48f
6:54 20 23 mph 1010.8mb 44f 48f
6:48 18 24 mph 1010.8mb 44f 48f
6:36 21 25 mph 1010.7mb 44f 48f
6:30 18 25 mph 1010.6mb 44f 48f
6:24 20 23 mph 1010.5mb 44f 48f
6:18 20 23 mph 1010.5mb 44f 48f
6:12 20 22 mph 1010.4mb 44f 48f
6:06 17 24 mph 1010.4mb 44f 48f
6:00 18 25 mph 1010.3mb 44f 48f
5:54 17 25 mph 1010.3mb 44f 48f
5:48 18 22 mph 1010.2mb 44f 48f
5:36 17 23 mph 1010.2mb 44f 48f
5:30 18 22 mph 1010.1mb 44f 48f
5:24 16 20 mph 1010mb 44f 47f
5:18 13 16 mph 1010mb 44f 46f
5:12 16 30 mph 1010mb 44f 48f
5:06 16 21 mph 1009.9mb 45f 47f
5:00 13 15 mph 1009.9mb 44f 47f
4:54 14 21 mph 1009.8mb 45f 47f
4:48 10 20 mph 1009.8mb 44f 47f
4:36 16 22 mph 1009.6mb 44f 48f
4:30 15 22 mph 1009.6mb 44f 48f
4:24 16 21 mph 1009.5mb 44f 48f
4:18 15 21 mph 1009.4mb 44f 48f
4:12 16 21 mph 1009.4mb 44f 48f
4:06 14 22 mph 1009.3mb 44f 48f
4:00 14 21 mph 1009.3mb 44f 48f
3:54 15 22 mph 1009.1mb 44f 48f
3:48 17 23 mph 1009.1mb 44f 49f
3:36 13 23 mph 1009mb 44f 49f
3:30 18 24 mph 1008.9mb 44f 49f
3:24 16 22 mph 1008.9mb 44f 49f
3:18 16 20 mph 1008.8mb 44f 48f
3:12 14 18 mph 1008.7mb 44f 48f
3:06 14 21 mph 1008.7mb 44f 48f
3:00 14 21 mph 1008.7mb 44f 48f
2:54 13 17 mph 1008.6mb 44f 48f
2:48 14 16 mph 1008.6mb 44f 49f
2:36 15 20 mph 1008.4mb 44f 49f
2:30 14 20 mph 1008.4mb 44f 49f
2:24 14 20 mph 1008.3mb 44f 49f
2:18 11 20 mph 1008.4mb 44f 49f
2:12 15 20 mph 1008.4mb 43f 48f
2:06 15 20 mph 1008.4mb 44f 48f
2:00 18 23 mph 1008.3mb 44f 48f
1:54 16 21 mph 1008.3mb 44f 47f
1:48 17 23 mph 1008.3mb 44f 47f
1:36 16 25 mph 1008.3mb 44f 46f
1:30 22 28 mph 1008.3mb 44f 47f
1:24 20 22 mph 1008.2mb 44f 46f
1:18 15 18 mph 1008.1mb 44f 46f
1:12 13 20 mph 1008.1mb 44f 47f
1:06 11 18 mph 1008.1mb 44f 47f
1:00 17 21 mph 1008.1mb 44f 47f
12:54 11 15 mph 1007.9mb 44f 47f
12:48 11 17 mph 1007.8mb 45f 47f
12:36 17 21 mph 1007.7mb 45f 49f
12:30 18 23 mph 1007.6mb 46f 48f
12:24 17 23 mph 1007.5mb 46f 48f
12:18 23 29 mph 1007.4mb 46f 49f
12:12 22 26 mph 1007.4mb 46f 49f
12:06 20 23 mph 1007.4mb 46f 49f
12:00 16 24 mph 1007.4mb 47f 49f
11:36 16 24 mph 1007.2mb 47f 47f
11:30 20 25 mph 1007.2mb 47f 48f
11:24 20 25 mph 1007.2mb 47f 48f
11:18 15 22 mph 1007mb 47f 48f
11:12 13 23 mph 1007mb 47f 48f
11:06 11 17 mph 1006.9mb 47f 47f
11:00 10 17 mph 1006.9mb 47f 48f
10:54 8 15 mph 1006.9mb 47f 48f
10:48 13 16 mph 1006.9mb 47f 48f
10:36 11 22 mph 1006.9mb 47f 48f
10:30 10 17 mph 1006.9mb 47f 48f
10:24 8 18 mph 1006.8mb 47f 48f
10:18 10 17 mph 1006.8mb 47f 47f
10:12 8 13 mph 1006.8mb 47f 47f
10:06 8 16 mph 1006.7mb 47f 48f
10:00 9 17 mph 1006.7mb 47f 48f
9:54 13 20 mph 1006.6mb 47f 48f
9:48 8 20 mph 1006.6mb 47f 48f
9:36 10 21 mph 1006.6mb 47f 48f
9:30 8 15 mph 1006.6mb 47f 48f
9:24 9 18 mph 1006.6mb 47f 48f
9:18 7 15 mph 1006.5mb 47f 48f
9:12 14 18 mph 1006.5mb 47f 48f
9:06 9 15 mph 1006.5mb 47f 48f
9:00 11 18 mph 1006.4mb 47f 48f
8:54 10 20 mph 1006.4mb 47f 47f
8:48 9 14 mph 1006.3mb 47f 47f
8:36 7 15 mph 1006.1mb 47f 47f
8:30 7 11 mph 1006mb 47f 47f
8:24 6 14 mph 1006.1mb 47f 47f
8:18 7 14 mph 1006.1mb 46f 47f
8:12 9 15 mph 1006.1mb 46f 47f
8:06 7 20 mph 1006.1mb 46f 47f
8:00 7 15 mph 1006.2mb 46f 47f
7:54 8 14 mph 1006.2mb 46f 47f
7:48 14 18 mph 1006mb 45f 47f
7:36 7 17 mph 1006.1mb 45f 47f
7:30 8 14 mph 1006.1mb 44f 47f
7:24 9 15 mph 1006.2mb 44f 47f
7:18 7 13 mph 1006.2mb 44f 47f
7:12 6 17 mph 1006.1mb 44f 47f
7:06 7 17 mph 1006.2mb 44f 47f
7:00 10 15 mph 1006.1mb 44f 47f
6:54 7 14 mph 1006.1mb 44f 47f
6:48 9 14 mph 1006.1mb 43f 47f
6:36 9 17 mph 1006.2mb 43f 47f
6:30 9 16 mph 1006.2mb 43f 47f
6:24 11 17 mph 1006.3mb 43f 47f
6:18 8 16 mph 1006.4mb 43f 47f
6:12 7 15 mph 1006.4mb 43f 47f
6:06 6 14 mph 1006.4mb 43f 47f
6:00 9 13 mph 1006.3mb 43f 47f
5:54 7 14 mph 1006.3mb 43f 47f
5:48 5 16 mph 1006.2mb 43f 47f
5:36 5 13 mph 1006.1mb 43f 47f
5:30 7 14 mph 1006.2mb 43f 47f
5:24 7 9 mph 1006.1mb 43f 47f
5:18 6 13 mph 1006.2mb 43f 47f
5:12 6 11 mph 1006.2mb 43f 47f
5:06 8 11 mph 1006.2mb 43f 47f
5:00 7 11 mph 1006.2mb 43f 47f
4:54 7 10 mph 1006.2mb 43f 47f
4:48 7 13 mph 1006.1mb 43f 47f
4:36 8 11 mph 1006.2mb 43f 47f
4:30 7 11 mph 1006.3mb 43f 47f
4:24 7 11 mph 1006.3mb 43f 47f
4:18 8 14 mph 1006.4mb 43f 47f
4:12 9 17 mph 1006.5mb 43f 47f
4:06 11 17 mph 1006.5mb 43f 47f
4:00 9 18 mph 1006.6mb 43f 47f
3:54 10 17 mph 1006.6mb 43f 47f
3:48 10 21 mph 1006.6mb 43f 47f
3:36 9 20 mph 1006.6mb 44f 47f
3:30 10 22 mph 1006.6mb 44f 47f
3:24 10 18 mph 1006.7mb 43f 47f
3:18 10 17 mph 1006.7mb 44f 47f
3:12 10 24 mph 1006.8mb 44f 47f
3:06 14 25 mph 1006.7mb 44f 47f
3:00 9 21 mph 1006.8mb 43f 47f
2:54 10 22 mph 1006.8mb 43f 47f
2:48 11 23 mph 1006.8mb 43f 47f
2:36 13 22 mph 1007mb 43f 47f
2:30 11 24 mph 1006.9mb 43f 47f
2:24 11 22 mph 1007mb 44f 47f
2:18 13 22 mph 1007mb 44f 47f
2:12 13 21 mph 1006.9mb 44f 47f
2:06 13 21 mph 1006.9mb 44f 47f
2:00 9 22 mph 1006.9mb 44f 47f
1:54 14 21 mph 1006.9mb 44f 47f
1:48 15 26 mph 1007mb 44f 47f
1:36 15 21 mph 1006.8mb 44f 47f
1:30 10 23 mph 1006.8mb 44f 47f
1:24 11 20 mph 1006.9mb 44f 47f
1:18 11 20 mph 1006.8mb 44f 47f
1:12 13 22 mph 1006.8mb 44f 47f
1:06 11 21 mph 1006.8mb 45f 47f
1:00 9 23 mph 1006.7mb 45f 47f
12:54 6 20 mph 1006.7mb 46f 47f
12:48 10 21 mph 1006.7mb 46f 46f
12:36 10 17 mph 1006.7mb 46f 46f
12:30 10 18 mph 1006.7mb 46f 46f
12:24 11 17 mph 1006.6mb 47f 46f
12:18 11 21 mph 1006.7mb 46f 46f
12:12 11 20 mph 1006.8mb 47f 46f
12:06 10 21 mph 1006.9mb 47f 46f
12:00 9 17 mph 1006.9mb 47f 46f
Do 03/23 11:54 11 21 mph 1006.9mb 47f 45f
11:48 11 25 mph 1006.9mb 47f 45f
11:36 9 25 mph 1007.1mb 47f 45f
11:30 9 22 mph 1007.1mb 47f 45f
11:24 13 26 mph 1007mb 47f 45f
11:18 13 22 mph 1007.1mb 47f 45f
11:12 9 24 mph 1007.2mb 47f 45f
11:06 11 21 mph 1007.2mb 47f 45f
11:00 11 25 mph 1007.3mb 47f 44f
10:54 13 20 mph 1007.3mb 47f 44f
10:48 8 16 mph 1007.3mb 47f 44f
10:36 10 21 mph 1007.5mb 47f 44f
10:30 13 18 mph 1007.6mb 47f 44f
10:24 9 26 mph 1007.7mb 47f 44f
10:18 13 23 mph 1007.7mb 47f 44f
10:12 14 25 mph 1007.8mb 47f 44f
10:06 10 18 mph 1007.9mb 47f 44f
10:00 9 18 mph 1008mb 47f 44f
9:54 15 23 mph 1008mb 47f 44f
9:48 8 22 mph 1008.1mb 47f 44f
9:36 9 18 mph 1008.2mb 46f 44f
9:30 10 22 mph 1008.1mb 46f 44f
9:24 13 25 mph 1008mb 46f 45f
9:18 14 21 mph 1008.1mb 46f 44f
9:12 10 20 mph 1008mb 46f 44f
9:06 8 18 mph 1008.2mb 46f 44f
9:00 7 17 mph 1008.1mb 45f 44f
8:54 11 28 mph 1008.1mb 45f 44f
8:48 9 22 mph 1008.1mb 44f 44f
8:36 9 18 mph 1008.3mb 44f 44f
8:30 9 17 mph 1008.3mb 44f 44f
8:24 11 17 mph 1008.3mb 44f 44f
8:18 9 17 mph 1008.4mb 44f 44f
8:12 10 18 mph 1008.5mb 44f 44f
8:06 8 10 mph 1008.6mb 44f 44f
8:00 7 13 mph 1008.7mb 44f 44f
7:54 10 16 mph 1008.8mb 44f 44f
7:48 6 17 mph 1008.9mb 44f 44f
7:36 10 15 mph 1009.1mb 44f 44f
7:30 10 17 mph 1009mb 44f 44f
7:24 11 20 mph 1009.1mb 44f 44f
7:18 10 20 mph 1009.3mb 44f 44f
7:12 10 18 mph 1009.3mb 44f 44f
7:06 15 20 mph 1009.4mb 44f 44f
7:00 13 21 mph 1009.5mb 44f 44f
6:54 9 18 mph 1009.5mb 44f 44f
6:48 9 18 mph 1009.7mb 44f 45f
6:36 14 24 mph 1009.9mb 44f 45f
6:30 15 25 mph 1010.1mb 44f 45f
6:24 10 20 mph 1010.2mb 44f 45f
6:18 8 28 mph 1010.2mb 44f 45f
6:12 14 33 mph 1010.3mb 44f 45f
6:06 13 25 mph 1010.5mb 44f 45f
6:00 11 23 mph 1010.6mb 44f 46f
5:54 11 20 mph 1010.6mb 44f 46f
5:48 13 28 mph 1010.6mb 44f 46f
5:36 11 17 mph 1010.6mb 44f 46f
5:30 7 13 mph 1010.7mb 44f 46f
5:24 7 15 mph 1010.9mb 44f 46f
5:18 7 14 mph 1010.9mb 44f 46f
5:12 6 11 mph 1011mb 44f 46f
5:06 8 21 mph 1011.1mb 44f 46f
5:00 8 18 mph 1011.3mb 44f 46f
4:54 11 29 mph 1011.3mb 44f 46f
4:48 8 24 mph 1011.4mb 44f 47f
4:36 8 14 mph 1011.5mb 44f 46f
4:30 8 15 mph 1011.5mb 44f 46f
4:24 7 9 mph 1011.7mb 44f 46f
4:18 6 11 mph 1011.7mb 44f 46f
4:12 7 13 mph 1011.6mb 44f 46f
4:06 6 9 mph 1011.6mb 44f 46f
4:00 6 9 mph 1011.6mb 44f 46f
3:36 7 16 mph 1012mb 44f 47f
3:30 9 14 mph 1012.1mb 44f 47f
3:24 6 14 mph 1012.1mb 44f 47f
3:18 6 13 mph 1012.2mb 44f 46f
3:12 5 10 mph 1012.3mb 44f 46f
3:06 7 11 mph 1012.5mb 44f 46f
3:00 6 9 mph 1012.5mb 44f 46f
2:54 6 9 mph 1012.7mb 44f 46f
2:48 6 14 mph 1012.9mb 44f 46f
2:36 9 16 mph 1012.9mb 44f 46f
2:30 6 11 mph 1013mb 44f 47f
2:24 8 14 mph 1013.1mb 44f 47f
2:18 5 11 mph 1013.1mb 44f 47f
2:12 7 15 mph 1013.2mb 44f 47f
2:06 8 16 mph 1013.2mb 44f 48f
2:00 9 14 mph 1013.3mb 44f 48f
1:54 7 17 mph 1013.3mb 44f 48f
1:48 8 17 mph 1013.3mb 44f 48f
1:36 8 21 mph 1013.5mb 44f 48f
1:30 10 20 mph 1013.5mb 44f 48f
1:24 8 21 mph 1013.6mb 44f 49f
1:18 14 28 mph 1013.6mb 44f 49f
1:12 14 23 mph 1013.7mb 44f 49f
1:06 7 17 mph 1013.8mb 44f 48f
1:00 8 22 mph 1013.9mb 44f 48f
12:54 8 20 mph 1013.9mb 44f 48f
12:48 9 18 mph 1014.1mb 44f 48f
12:36 9 21 mph 1014.3mb 44f 48f
12:30 14 21 mph 1014.3mb 44f 48f
12:24 14 23 mph 1014.4mb 44f 48f
12:18 10 23 mph 1014.5mb 44f 48f
12:12 9 17 mph 1014.6mb 44f 48f
12:06 9 18 mph 1014.6mb 46f 48f
12:00 10 15 mph 1014.7mb 46f 47f
11:54 10 17 mph 1014.8mb 46f 47f
11:48 8 15 mph 1014.9mb 46f 47f
11:36 8 13 mph 1014.9mb 46f 46f
11:30 8 16 mph 1015mb 46f 46f
11:24 13 22 mph 1015mb 46f 46f
11:18 6 13 mph 1015.1mb 46f 46f
11:12 7 14 mph 1015.2mb 46f 46f
11:06 11 16 mph 1015.3mb 46f 46f
11:00 6 15 mph 1015.3mb 47f 45f